Anchorage/Lake Hood Seaplane Base, Alaska
Current Conditions -  °F | °C
As of 11:53 PM on Tuesday 21 Oct 2014 (Local Time) from PALH Reporting Station
Clear Clear  
Wind Chill: 31°   Ceiling: Unl
Heat Index: 31°   Visibility: 10mi
Dew Point: 26°   Wind: 0mph
Humidity: 82%   Direction: NA
Pressure: 29.23"   Gusts: NA
Location:  61.18°N, 149.97°W
Report Text: PALH 220753Z 00000KT 10SM CLR M01/M03 A2923 RMK AO2 SLP900 T10061033
Loading
Personal Weather Stations






























Interactive Weather Map New forecast layout! Learn more

10-Day Weather Forecast

Advertisements
Track Severe Weather on mobile